createdAt,value
2023-04-04T00:00:52.724Z,0.55
2023-04-04T00:01:52.760Z,0.54
2023-04-04T00:02:52.854Z,0.54
2023-04-04T00:03:52.893Z,0.54
2023-04-04T00:04:52.855Z,0.55
2023-04-04T00:05:52.955Z,0.54
2023-04-04T00:06:52.921Z,0.54
2023-04-04T00:07:52.955Z,0.55
2023-04-04T00:08:52.996Z,0.55
2023-04-04T00:09:53.024Z,0.53
2023-04-04T00:10:53.055Z,0.52
2023-04-04T00:11:53.097Z,0.54
2023-04-04T00:12:53.124Z,0.54
2023-04-04T00:13:53.167Z,0.55
2023-04-04T00:14:53.188Z,0.53
2023-04-04T00:15:53.273Z,0.54
2023-04-04T00:16:53.241Z,0.54
2023-04-04T00:17:53.321Z,0.54
2023-04-04T00:18:53.308Z,0.54
2023-04-04T00:19:53.342Z,0.54
2023-04-04T00:20:53.369Z,0.54
2023-04-04T00:21:53.399Z,0.54
2023-04-04T00:22:53.445Z,0.54
2023-04-04T00:23:53.474Z,0.55
2023-04-04T00:24:53.524Z,0.54
2023-04-04T00:25:53.584Z,0.54
2023-04-04T00:26:53.586Z,0.54
2023-04-04T00:27:53.604Z,0.53
2023-04-04T00:28:53.683Z,0.54
2023-04-04T00:29:53.678Z,0.54
2023-04-04T00:30:53.732Z,0.54
2023-04-04T00:31:53.785Z,0.54
2023-04-04T00:32:53.805Z,0.54
2023-04-04T00:33:53.842Z,0.53
2023-04-04T00:34:53.919Z,0.54
2023-04-04T00:35:53.950Z,0.54
2023-04-04T00:36:53.948Z,0.53
2023-04-04T00:37:53.980Z,0.54
2023-04-04T00:38:54.032Z,0.54
2023-04-04T00:39:54.045Z,0.53
2023-04-04T00:40:54.091Z,0.53
2023-04-04T00:41:54.118Z,0.54
2023-04-04T00:42:54.169Z,0.53
2023-04-04T00:43:54.208Z,0.54
2023-04-04T00:44:54.244Z,0.53
2023-04-04T00:45:54.345Z,0.54
2023-04-04T00:46:54.324Z,0.54
2023-04-04T00:47:54.457Z,0.53
2023-04-04T00:48:54.405Z,0.53
2023-04-04T00:49:54.452Z,0.55
2023-04-04T00:50:54.482Z,0.53
2023-04-04T00:51:54.518Z,0.53
2023-04-04T00:52:54.591Z,0.53
2023-04-04T00:53:54.586Z,0.53
2023-04-04T00:54:54.622Z,0.53
2023-04-04T00:55:54.677Z,0.54
2023-04-04T00:56:54.721Z,0.53
2023-04-04T00:57:54.752Z,0.53
2023-04-04T00:58:54.837Z,0.54
2023-04-04T00:59:54.843Z,0.54
2023-04-04T01:00:55.042Z,0.54
2023-04-04T01:01:54.907Z,0.53
2023-04-04T01:02:54.986Z,0.53
2023-04-04T01:03:55.004Z,0.54
2023-04-04T01:04:55.029Z,0.53
2023-04-04T01:05:55.078Z,0.53
2023-04-04T01:06:55.110Z,0.54
2023-04-04T01:07:55.166Z,0.53
2023-04-04T01:08:55.258Z,0.53
2023-04-04T01:09:55.241Z,0.52
2023-04-04T01:10:55.298Z,0.53
2023-04-04T01:11:55.330Z,0.54
2023-04-04T01:12:55.383Z,0.53
2023-04-04T01:13:55.423Z,0.53
2023-04-04T01:14:55.483Z,0.53
2023-04-04T01:15:55.518Z,0.53
2023-04-04T01:16:55.571Z,0.53
2023-04-04T01:17:55.709Z,0.53
2023-04-04T01:18:55.644Z,0.53
2023-04-04T01:19:55.679Z,0.53
2023-04-04T01:20:55.730Z,0.53
2023-04-04T01:21:55.792Z,0.54
2023-04-04T01:22:55.814Z,0.53
2023-04-04T01:23:55.880Z,0.53
2023-04-04T01:24:55.890Z,0.53
2023-04-04T01:25:55.944Z,0.53
2023-04-04T01:26:55.975Z,0.54
2023-04-04T01:27:56.028Z,0.53
2023-04-04T01:28:56.071Z,0.54
2023-04-04T01:29:56.107Z,0.54
2023-04-04T01:30:56.169Z,0.53
2023-04-04T01:31:56.188Z,0.53
2023-04-04T01:32:56.263Z,0.53
2023-04-04T01:33:56.272Z,0.52
2023-04-04T01:34:56.315Z,0.53
2023-04-04T01:35:56.390Z,0.52
2023-04-04T01:36:56.380Z,0.53
2023-04-04T01:37:56.415Z,0.52
2023-04-04T01:38:56.459Z,0.52
2023-04-04T01:39:56.486Z,0.52
2023-04-04T01:40:56.537Z,0.52
2023-04-04T01:41:56.560Z,0.53
2023-04-04T01:42:56.590Z,0.52
2023-04-04T01:43:56.638Z,0.53
2023-04-04T01:44:56.660Z,0.52
2023-04-04T01:45:56.714Z,0.51
2023-04-04T01:46:56.743Z,0.52
2023-04-04T01:47:56.826Z,0.53
2023-04-04T01:48:56.785Z,0.53
2023-04-04T01:49:57.013Z,0.52
2023-04-04T01:50:56.866Z,0.52
2023-04-04T01:51:56.894Z,0.52
2023-04-04T01:52:56.925Z,0.52
2023-04-04T01:53:56.952Z,0.52
2023-04-04T01:54:56.989Z,0.51
2023-04-04T01:55:57.023Z,0.52
2023-04-04T01:56:57.051Z,0.52
2023-04-04T01:57:57.079Z,0.52
2023-04-04T01:58:57.125Z,0.51
2023-04-04T01:59:57.147Z,0.51
2023-04-04T02:00:57.181Z,0.52
2023-04-04T02:01:57.242Z,0.52
2023-04-04T02:02:57.293Z,0.51
2023-04-04T02:03:57.279Z,0.52
2023-04-04T02:04:57.286Z,0.52
2023-04-04T02:05:57.345Z,0.52
2023-04-04T02:06:57.369Z,0.51
2023-04-04T02:07:57.398Z,0.51
2023-04-04T02:08:57.433Z,0.53
2023-04-04T02:09:57.467Z,0.52
2023-04-04T02:10:57.500Z,0.52
2023-04-04T02:11:57.532Z,0.52
2023-04-04T02:12:57.578Z,0.50
2023-04-04T02:13:57.601Z,0.52
2023-04-04T02:14:57.636Z,0.50
2023-04-04T02:15:57.697Z,0.51
2023-04-04T02:16:57.704Z,0.51
2023-04-04T02:17:58.876Z,0.51
2023-04-04T02:18:57.702Z,0.52
2023-04-04T02:19:57.678Z,0.51
2023-04-04T02:20:57.738Z,0.51
2023-04-04T02:21:57.641Z,0.51
2023-04-04T02:22:57.643Z,0.50
2023-04-04T02:23:57.588Z,0.50
2023-04-04T02:24:57.657Z,0.52
2023-04-04T02:25:57.557Z,0.51
2023-04-04T02:26:57.578Z,0.51
2023-04-04T02:27:57.516Z,0.51
2023-04-04T02:28:57.498Z,0.51
2023-04-04T02:29:57.478Z,0.52
2023-04-04T02:30:57.509Z,0.51
2023-04-04T02:31:57.430Z,0.51
2023-04-04T02:32:57.565Z,0.51
2023-04-04T02:33:57.393Z,0.51
2023-04-04T02:34:57.382Z,0.51
2023-04-04T02:35:57.392Z,0.51
2023-04-04T02:36:57.332Z,0.51
2023-04-04T02:37:57.321Z,0.51
2023-04-04T02:38:57.290Z,0.51
2023-04-04T02:39:57.271Z,0.50
2023-04-04T02:40:57.280Z,0.52
2023-04-04T02:41:57.224Z,0.50
2023-04-04T02:42:57.198Z,0.50
2023-04-04T02:43:57.186Z,0.52
2023-04-04T02:44:57.160Z,0.51
2023-04-04T02:45:57.718Z,0.51
2023-04-04T02:46:57.154Z,0.51
2023-04-04T02:47:57.189Z,0.52
2023-04-04T02:48:57.076Z,0.51
2023-04-04T02:49:57.051Z,0.50
2023-04-04T02:50:57.031Z,0.51
2023-04-04T02:51:56.998Z,0.52
2023-04-04T02:52:56.979Z,0.52
2023-04-04T02:53:56.946Z,0.52
2023-04-04T02:54:56.930Z,0.52
2023-04-04T02:55:56.899Z,0.52
2023-04-04T02:56:56.877Z,0.51
2023-04-04T02:57:56.853Z,0.52
2023-04-04T02:58:56.840Z,0.51
2023-04-04T02:59:56.838Z,0.51
2023-04-04T03:00:56.788Z,0.52
2023-04-04T03:01:56.773Z,0.50
2023-04-04T03:02:56.834Z,0.52
2023-04-04T03:03:56.823Z,0.51
2023-04-04T03:04:56.682Z,0.51
2023-04-04T03:05:56.705Z,0.52
2023-04-04T03:06:56.689Z,0.51
2023-04-04T03:07:56.704Z,0.52
2023-04-04T03:08:56.738Z,0.52
2023-04-04T03:09:56.771Z,0.51
2023-04-04T03:10:56.803Z,0.52
2023-04-04T03:11:56.825Z,0.51
2023-04-04T03:12:56.861Z,0.51
2023-04-04T03:13:56.903Z,0.50
2023-04-04T03:14:56.954Z,0.52
2023-04-04T03:15:57.786Z,0.51
2023-04-04T03:16:57.020Z,0.52
2023-04-04T03:17:57.084Z,0.52
2023-04-04T03:18:57.041Z,0.51
2023-04-04T03:19:57.069Z,0.51
2023-04-04T03:20:57.100Z,0.51
2023-04-04T03:21:57.122Z,0.51
2023-04-04T03:22:57.138Z,0.52
2023-04-04T03:23:57.179Z,0.53
2023-04-04T03:24:57.202Z,0.52
2023-04-04T03:25:57.239Z,0.51
2023-04-04T03:26:57.259Z,0.51
2023-04-04T03:27:57.314Z,0.52
2023-04-04T03:28:57.345Z,0.51
2023-04-04T03:29:57.349Z,0.50
2023-04-04T03:30:57.376Z,0.52
2023-04-04T03:31:57.457Z,0.52
2023-04-04T03:32:57.445Z,0.52
2023-04-04T03:33:57.457Z,0.51
2023-04-04T03:34:57.478Z,0.52
2023-04-04T03:35:57.537Z,0.51
2023-04-04T03:36:57.536Z,0.51
2023-04-04T03:37:57.569Z,0.52
2023-04-04T03:38:57.602Z,0.51
2023-04-04T03:39:57.608Z,0.51
2023-04-04T03:40:57.652Z,0.52
2023-04-04T03:41:57.666Z,0.52
2023-04-04T03:42:57.691Z,0.52
2023-04-04T03:43:57.710Z,0.51
2023-04-04T03:44:57.741Z,0.51
2023-04-04T03:45:57.787Z,0.51
2023-04-04T03:46:57.800Z,0.53
2023-04-04T03:47:57.874Z,0.51
2023-04-04T03:48:57.850Z,0.51
2023-04-04T03:49:57.869Z,0.52
2023-04-04T03:50:57.913Z,0.51
2023-04-04T03:51:57.928Z,0.51
2023-04-04T03:52:57.968Z,0.52
2023-04-04T03:53:57.973Z,0.51
2023-04-04T03:54:57.987Z,0.51
2023-04-04T03:55:58.025Z,0.51
2023-04-04T03:56:58.101Z,0.51
2023-04-04T03:57:58.072Z,0.51
2023-04-04T03:58:58.100Z,0.52
2023-04-04T03:59:58.155Z,0.51
2023-04-04T04:00:58.145Z,0.51
2023-04-04T04:01:58.164Z,0.52
2023-04-04T04:02:58.241Z,0.51
2023-04-04T04:03:58.243Z,0.52
2023-04-04T04:04:58.255Z,0.52
2023-04-04T04:05:58.295Z,0.51
2023-04-04T04:06:58.309Z,0.50
2023-04-04T04:07:58.329Z,0.50
2023-04-04T04:08:58.360Z,0.52
2023-04-04T04:09:59.250Z,0.52
2023-04-04T04:10:58.425Z,0.51
2023-04-04T04:11:58.448Z,0.51
2023-04-04T04:12:58.473Z,0.52
2023-04-04T04:13:58.499Z,0.52
2023-04-04T04:14:58.524Z,0.51
2023-04-04T04:15:58.576Z,0.52
2023-04-04T04:16:58.577Z,0.52
2023-04-04T04:17:58.661Z,0.53
2023-04-04T04:18:58.629Z,0.52
2023-04-04T04:19:58.675Z,0.52
2023-04-04T04:20:58.680Z,0.52
2023-04-04T04:21:58.707Z,0.52
2023-04-04T04:22:58.755Z,0.52
2023-04-04T04:23:58.763Z,0.53
2023-04-04T04:24:58.801Z,0.52
2023-04-04T04:25:59.318Z,0.51
2023-04-04T04:26:58.848Z,0.51
2023-04-04T04:27:58.901Z,0.50
2023-04-04T04:28:58.915Z,0.52
2023-04-04T04:29:58.953Z,0.52
2023-04-04T04:30:58.983Z,0.52
2023-04-04T04:31:59.064Z,0.53
2023-04-04T04:32:59.061Z,0.52
2023-04-04T04:33:59.068Z,0.51
2023-04-04T04:34:59.084Z,0.51
2023-04-04T04:36:00.339Z,0.52
2023-04-04T04:36:59.300Z,0.52
2023-04-04T04:37:59.309Z,0.51
2023-04-04T04:38:59.339Z,0.52
2023-04-04T04:39:59.373Z,0.52
2023-04-04T04:40:59.417Z,0.51
2023-04-04T04:41:59.443Z,0.52
2023-04-04T04:42:59.462Z,0.52
2023-04-04T04:43:59.498Z,0.51
2023-04-04T04:44:59.619Z,0.52
2023-04-04T04:45:59.541Z,0.52
2023-04-04T04:46:59.612Z,0.51
2023-04-04T04:47:59.601Z,0.52
2023-04-04T04:48:59.654Z,0.52
2023-04-04T04:49:59.660Z,0.51
2023-04-04T04:50:59.689Z,0.51
2023-04-04T04:51:59.702Z,0.52
2023-04-04T04:52:59.895Z,0.52
2023-04-04T04:53:59.776Z,0.52
2023-04-04T04:54:59.793Z,0.51
2023-04-04T04:55:59.835Z,0.52
2023-04-04T04:56:59.850Z,0.52
2023-04-04T04:57:59.872Z,0.52
2023-04-04T04:59:00.078Z,0.51
2023-04-04T04:59:59.945Z,0.51
2023-04-04T05:00:59.992Z,0.52
2023-04-04T05:02:00.030Z,0.51
2023-04-04T05:03:00.047Z,0.52
2023-04-04T05:04:00.049Z,0.52
2023-04-04T05:05:00.122Z,0.51
2023-04-04T05:06:00.101Z,0.51
2023-04-04T05:07:00.128Z,0.51
2023-04-04T05:08:00.151Z,0.52
2023-04-04T05:09:00.235Z,0.51
2023-04-04T05:10:00.210Z,0.51
2023-04-04T05:11:00.245Z,0.51
2023-04-04T05:12:00.249Z,0.51
2023-04-04T05:13:00.279Z,0.51
2023-04-04T05:14:00.326Z,0.51
2023-04-04T05:15:00.329Z,0.51
2023-04-04T05:16:00.380Z,0.51
2023-04-04T05:17:00.394Z,0.52
2023-04-04T05:18:00.493Z,0.52
2023-04-04T05:19:00.436Z,0.51
2023-04-04T05:20:00.476Z,0.50
2023-04-04T05:21:00.494Z,0.51
2023-04-04T05:22:00.514Z,0.51
2023-04-04T05:23:00.530Z,0.52
2023-04-04T05:24:00.570Z,0.51
2023-04-04T05:25:00.612Z,0.51
2023-04-04T05:26:00.616Z,0.51
2023-04-04T05:27:00.654Z,0.51
2023-04-04T05:28:00.678Z,0.51
2023-04-04T05:29:00.705Z,0.52
2023-04-04T05:30:01.046Z,0.51
2023-04-04T05:31:00.828Z,0.52
2023-04-04T05:32:00.835Z,0.52
2023-04-04T05:33:01.002Z,0.52
2023-04-04T05:34:00.830Z,0.52
2023-04-04T05:35:00.927Z,0.52
2023-04-04T05:36:01.059Z,0.52
2023-04-04T05:37:00.906Z,0.52
2023-04-04T05:38:00.929Z,0.51
2023-04-04T05:39:00.950Z,0.52
2023-04-04T05:40:00.982Z,0.52
2023-04-04T05:41:01.033Z,0.52
2023-04-04T05:42:01.365Z,0.52
2023-04-04T05:43:01.063Z,0.52
2023-04-04T05:44:01.082Z,0.52
2023-04-04T05:45:01.282Z,0.51
2023-04-04T05:46:01.204Z,0.51
2023-04-04T05:47:01.165Z,0.52
2023-04-04T05:48:01.253Z,0.52
2023-04-04T05:49:01.217Z,0.52
2023-04-04T05:50:01.242Z,0.52
2023-04-04T05:51:01.281Z,0.52
2023-04-04T05:52:01.292Z,0.50
2023-04-04T05:53:01.320Z,0.51
2023-04-04T05:54:01.343Z,0.51
2023-04-04T05:55:01.355Z,0.52
2023-04-04T05:56:01.385Z,0.52
2023-04-04T05:57:01.408Z,0.52
2023-04-04T05:58:01.449Z,0.51
2023-04-04T05:59:01.489Z,0.52
2023-04-04T06:00:01.502Z,0.51
2023-04-04T06:01:01.545Z,0.52
2023-04-04T06:02:01.528Z,0.52
2023-04-04T06:03:01.691Z,0.51
2023-04-04T06:04:01.576Z,0.52
2023-04-04T06:05:01.612Z,0.52
2023-04-04T06:06:01.657Z,0.52
2023-04-04T06:07:01.704Z,0.52
2023-04-04T06:08:01.662Z,0.51
2023-04-04T06:09:01.686Z,0.51
2023-04-04T06:10:01.732Z,0.52
2023-04-04T06:11:01.743Z,0.52
2023-04-04T06:12:01.765Z,0.52
2023-04-04T06:13:01.797Z,0.51
2023-04-04T06:14:01.825Z,0.51
2023-04-04T06:15:01.812Z,0.51
2023-04-04T06:16:01.871Z,0.52
2023-04-04T06:17:01.871Z,0.52
2023-04-04T06:18:01.919Z,0.50
2023-04-04T06:19:01.904Z,0.51
2023-04-04T06:20:01.916Z,0.52
2023-04-04T06:21:01.956Z,0.51
2023-04-04T06:22:01.974Z,0.52
2023-04-04T06:23:01.982Z,0.51
2023-04-04T06:24:02.072Z,0.52
2023-04-04T06:25:02.025Z,0.51
2023-04-04T06:26:02.044Z,0.51
2023-04-04T06:27:02.058Z,0.51
2023-04-04T06:28:02.096Z,0.52
2023-04-04T06:29:02.107Z,0.51
2023-04-04T06:30:02.127Z,0.51
2023-04-04T06:31:02.210Z,0.52
2023-04-04T06:32:02.198Z,0.51
2023-04-04T06:33:02.256Z,0.50
2023-04-04T06:34:02.209Z,0.51
2023-04-04T06:35:02.238Z,0.51
2023-04-04T06:36:02.321Z,0.51
2023-04-04T06:37:02.302Z,0.52
2023-04-04T06:38:02.311Z,0.51
2023-04-04T06:39:02.345Z,0.51
2023-04-04T06:40:03.353Z,0.51
2023-04-04T06:41:02.419Z,0.50
2023-04-04T06:42:02.416Z,0.51
2023-04-04T06:43:02.421Z,0.52
2023-04-04T06:44:02.464Z,0.52
2023-04-04T06:45:02.484Z,0.51
2023-04-04T06:46:02.505Z,0.51
2023-04-04T06:47:02.668Z,0.51
2023-04-04T06:48:02.589Z,0.51
2023-04-04T06:49:02.575Z,0.51
2023-04-04T06:50:02.636Z,0.51
2023-04-04T06:51:02.627Z,0.51
2023-04-04T06:52:02.881Z,0.51
2023-04-04T06:53:04.362Z,0.51
2023-04-04T06:54:02.596Z,0.52
2023-04-04T06:55:02.583Z,0.51
2023-04-04T06:56:02.583Z,0.51
2023-04-04T06:57:02.528Z,0.52
2023-04-04T06:58:02.504Z,0.51
2023-04-04T06:59:03.390Z,0.51
2023-04-04T07:00:02.447Z,0.52
2023-04-04T07:01:03.411Z,0.52
2023-04-04T07:02:02.446Z,0.51
2023-04-04T07:03:02.411Z,0.52
2023-04-04T07:04:02.356Z,0.52
2023-04-04T07:05:02.330Z,0.52
2023-04-04T07:06:02.327Z,0.52
2023-04-04T07:07:02.866Z,0.52
2023-04-04T07:08:02.360Z,0.52
2023-04-04T07:09:03.425Z,0.52
2023-04-04T07:10:02.371Z,0.52
2023-04-04T07:11:02.883Z,0.52
2023-04-04T07:12:02.308Z,0.52
2023-04-04T07:13:02.266Z,0.52
2023-04-04T07:14:02.235Z,0.52
2023-04-04T07:15:02.201Z,0.50
2023-04-04T07:16:02.226Z,0.52
2023-04-04T07:17:05.555Z,0.52
2023-04-04T07:18:03.219Z,0.52
2023-04-04T07:19:02.096Z,0.52
2023-04-04T07:20:04.671Z,0.52
2023-04-04T07:21:02.079Z,0.52
2023-04-04T07:22:02.008Z,0.52
2023-04-04T07:23:01.985Z,0.50
2023-04-04T07:24:01.975Z,0.51
2023-04-04T07:25:01.938Z,0.51
2023-04-04T07:26:01.919Z,0.51
2023-04-04T07:27:02.882Z,0.50
2023-04-04T07:28:11.754Z,0.51
2023-04-04T07:29:02.853Z,0.51
2023-04-04T07:30:01.801Z,0.51
2023-04-04T07:31:04.406Z,0.51
2023-04-04T07:32:01.780Z,0.52
2023-04-04T07:33:01.758Z,0.52
2023-04-04T07:34:01.697Z,0.51
2023-04-04T07:35:02.407Z,0.52
2023-04-04T07:36:01.934Z,0.52
2023-04-04T07:37:01.887Z,0.52
2023-04-04T07:38:01.896Z,0.52
2023-04-04T07:39:01.913Z,0.52
2023-04-04T07:40:03.937Z,0.51
2023-04-04T07:41:04.053Z,0.52
2023-04-04T07:42:01.937Z,0.50
2023-04-04T07:43:02.880Z,0.51
2023-04-04T07:44:01.976Z,0.51
2023-04-04T07:45:01.966Z,0.51
2023-04-04T07:46:02.018Z,0.51
2023-04-04T07:47:09.196Z,0.51
2023-04-04T07:48:02.923Z,0.51
2023-04-04T07:49:02.895Z,0.51
2023-04-04T07:50:01.845Z,0.51
2023-04-04T07:51:01.813Z,0.52
2023-04-04T07:52:03.392Z,0.52
2023-04-04T07:53:02.382Z,0.52
2023-04-04T07:54:01.870Z,0.51
2023-04-04T07:55:02.380Z,0.51
2023-04-04T07:56:01.860Z,0.51
2023-04-04T07:57:01.905Z,0.51
2023-04-04T07:58:01.869Z,0.52
2023-04-04T07:59:01.911Z,0.52
2023-04-04T08:00:02.873Z,0.53
2023-04-04T08:01:01.890Z,0.52
2023-04-04T08:02:01.892Z,0.52
2023-04-04T08:03:01.984Z,0.52
2023-04-04T08:04:02.023Z,0.51
2023-04-04T08:05:01.890Z,0.51
2023-04-04T08:06:01.830Z,0.51
2023-04-04T08:07:01.817Z,0.51
2023-04-04T08:08:01.789Z,0.52
2023-04-04T08:09:02.385Z,0.52
2023-04-04T08:10:01.730Z,0.53
2023-04-04T08:11:02.396Z,0.51
2023-04-04T08:12:01.728Z,0.51
2023-04-04T08:13:01.678Z,0.51
2023-04-04T08:14:01.582Z,0.52
2023-04-04T08:15:01.574Z,0.52
2023-04-04T08:16:01.601Z,0.52
2023-04-04T08:17:01.510Z,0.52
2023-04-04T08:18:01.511Z,0.52
2023-04-04T08:19:02.386Z,0.52
2023-04-04T08:20:01.406Z,0.52
2023-04-04T08:21:01.403Z,0.51
2023-04-04T08:22:01.365Z,0.51
2023-04-04T08:23:01.887Z,0.51
2023-04-04T08:24:01.292Z,0.52
2023-04-04T08:25:02.919Z,0.51
2023-04-04T08:26:01.252Z,0.51
2023-04-04T08:27:04.989Z,0.51
2023-04-04T08:28:01.230Z,0.51
2023-04-04T08:29:01.156Z,0.52
2023-04-04T08:30:01.116Z,0.51
2023-04-04T08:31:01.934Z,0.51
2023-04-04T08:32:01.097Z,0.52
2023-04-04T08:33:01.372Z,0.52
2023-04-04T08:34:01.000Z,0.52
2023-04-04T08:35:00.996Z,0.51
2023-04-04T08:36:01.965Z,0.51
2023-04-04T08:37:00.919Z,0.52
2023-04-04T08:38:00.919Z,0.52
2023-04-04T08:39:00.854Z,0.51
2023-04-04T08:40:00.824Z,0.52
2023-04-04T08:41:00.806Z,0.52
2023-04-04T08:42:00.765Z,0.51
2023-04-04T08:43:00.745Z,0.51
2023-04-04T08:44:00.714Z,0.51
2023-04-04T08:45:01.440Z,0.51
2023-04-04T08:46:00.660Z,0.51
2023-04-04T08:47:00.681Z,0.51
2023-04-04T08:48:00.638Z,0.50
2023-04-04T08:49:00.572Z,0.50
2023-04-04T08:50:00.541Z,0.50
2023-04-04T08:51:00.518Z,0.51
2023-04-04T08:52:00.480Z,0.52
2023-04-04T08:53:00.646Z,0.51
2023-04-04T08:54:00.440Z,0.51
2023-04-04T08:55:02.467Z,0.51
2023-04-04T08:56:00.373Z,0.51
2023-04-04T08:57:00.359Z,0.51
2023-04-04T08:58:00.316Z,0.51
2023-04-04T08:59:00.363Z,0.52
2023-04-04T09:00:00.423Z,0.51
2023-04-04T09:01:01.974Z,0.51
2023-04-04T09:02:01.395Z,0.51
2023-04-04T09:03:00.275Z,0.51
2023-04-04T09:04:00.139Z,0.51
2023-04-04T09:05:06.859Z,0.52
2023-04-04T09:06:00.147Z,0.51
2023-04-04T09:07:00.093Z,0.51
2023-04-04T09:08:00.046Z,0.51
2023-04-04T09:09:00.010Z,0.51
2023-04-04T09:09:59.980Z,0.52
2023-04-04T09:10:59.942Z,0.52
2023-04-04T09:12:02.122Z,0.50
2023-04-04T09:13:12.382Z,0.52
2023-04-04T09:14:00.872Z,0.52
2023-04-04T09:14:59.878Z,0.52
2023-04-04T09:16:00.111Z,0.52
2023-04-04T09:16:59.997Z,0.51
2023-04-04T09:17:59.893Z,0.51
2023-04-04T09:18:59.808Z,0.52
2023-04-04T09:19:59.784Z,0.52
2023-04-04T09:20:59.756Z,0.52
2023-04-04T09:22:00.413Z,0.51
2023-04-04T09:22:59.688Z,0.51
2023-04-04T09:24:01.455Z,0.50
2023-04-04T09:25:00.644Z,0.51
2023-04-04T09:26:04.685Z,0.51
2023-04-04T09:26:59.598Z,0.51
2023-04-04T09:27:59.550Z,0.51
2023-04-04T09:28:59.525Z,0.51
2023-04-04T09:29:59.509Z,0.51
2023-04-04T09:30:59.471Z,0.51
2023-04-04T09:31:59.471Z,0.51
2023-04-04T09:32:59.453Z,0.51
2023-04-04T09:33:59.369Z,0.51
2023-04-04T09:34:59.362Z,0.51
2023-04-04T09:35:59.337Z,0.51
2023-04-04T09:36:59.269Z,0.50
2023-04-04T09:37:59.235Z,0.51
2023-04-04T09:39:00.924Z,0.50
2023-04-04T09:39:59.185Z,0.50
2023-04-04T09:40:59.200Z,0.51
2023-04-04T09:41:59.107Z,0.50
2023-04-04T09:42:59.915Z,0.51
2023-04-04T09:43:59.057Z,0.51
2023-04-04T09:44:59.013Z,0.51
2023-04-04T09:46:01.966Z,0.51
2023-04-04T09:46:58.958Z,0.51
2023-04-04T09:47:58.971Z,0.51
2023-04-04T09:48:59.879Z,0.51
2023-04-04T09:49:58.859Z,0.51
2023-04-04T09:50:58.817Z,0.52
2023-04-04T09:51:58.797Z,0.51
2023-04-04T09:52:58.756Z,0.51
2023-04-04T09:54:00.452Z,0.51
2023-04-04T09:54:58.695Z,0.51
2023-04-04T09:55:58.707Z,0.50
2023-04-04T09:56:58.636Z,0.50
2023-04-04T09:57:58.591Z,0.51
2023-04-04T09:59:03.720Z,0.51
2023-04-04T09:59:59.577Z,0.50
2023-04-04T10:00:58.505Z,0.51
2023-04-04T10:01:58.596Z,0.51
2023-04-04T10:02:58.486Z,0.50
2023-04-04T10:03:59.958Z,0.51
2023-04-04T10:05:06.061Z,0.50
2023-04-04T10:05:59.336Z,0.50
2023-04-04T10:06:58.940Z,0.51
2023-04-04T10:07:58.244Z,0.51
2023-04-04T10:08:58.241Z,0.50
2023-04-04T10:09:58.179Z,0.50
2023-04-04T10:11:09.618Z,0.50
2023-04-04T10:11:59.114Z,0.50
2023-04-04T10:12:58.086Z,0.50
2023-04-04T10:13:58.056Z,0.50
2023-04-04T10:14:58.017Z,0.50
2023-04-04T10:15:58.982Z,0.51
2023-04-04T10:16:57.962Z,0.51
2023-04-04T10:17:57.959Z,0.50
2023-04-04T10:18:57.892Z,0.51
2023-04-04T10:19:57.842Z,0.51
2023-04-04T10:21:08.171Z,0.51
2023-04-04T10:21:58.760Z,0.51
2023-04-04T10:23:00.937Z,0.51
2023-04-04T10:23:57.710Z,0.51
2023-04-04T10:24:57.668Z,0.51
2023-04-04T10:25:57.656Z,0.51
2023-04-04T10:26:57.590Z,0.51
2023-04-04T10:27:57.554Z,0.51
2023-04-04T10:28:57.524Z,0.51
2023-04-04T10:29:57.503Z,0.51
2023-04-04T10:31:05.778Z,0.52
2023-04-04T10:31:59.289Z,0.51
2023-04-04T10:32:57.408Z,0.51
2023-04-04T10:33:57.364Z,0.51
2023-04-04T10:34:57.297Z,0.51
2023-04-04T10:35:57.319Z,0.51
2023-04-04T10:36:57.222Z,0.51
2023-04-04T10:37:57.183Z,0.51
2023-04-04T10:38:57.136Z,0.51
2023-04-04T10:39:57.100Z,0.50
2023-04-04T10:40:57.060Z,0.50
2023-04-04T10:41:57.033Z,0.50
2023-04-04T10:42:56.992Z,0.51
2023-04-04T10:43:56.948Z,0.51
2023-04-04T10:44:56.914Z,0.51
2023-04-04T10:45:58.472Z,0.50
2023-04-04T10:46:56.949Z,0.52
2023-04-04T10:47:56.824Z,0.52
2023-04-04T10:48:56.754Z,0.52
2023-04-04T10:49:56.712Z,0.52
2023-04-04T10:50:56.685Z,0.51
2023-04-04T10:51:57.370Z,0.51
2023-04-04T10:52:56.601Z,0.51
2023-04-04T10:53:56.566Z,0.51
2023-04-04T10:54:56.511Z,0.50
2023-04-04T10:55:56.453Z,0.50
2023-04-04T10:56:56.563Z,0.50
2023-04-04T10:57:56.371Z,0.50
2023-04-04T10:58:58.116Z,0.50
2023-04-04T10:59:56.290Z,0.50
2023-04-04T11:00:56.269Z,0.51
2023-04-04T11:01:56.203Z,0.50
2023-04-04T11:02:56.190Z,0.51
2023-04-04T11:03:56.177Z,0.51
2023-04-04T11:04:56.086Z,0.51
2023-04-04T11:05:56.097Z,0.51
2023-04-04T11:06:56.020Z,0.51
2023-04-04T11:08:07.542Z,0.51
2023-04-04T11:08:56.945Z,0.51
2023-04-04T11:09:55.964Z,0.51
2023-04-04T11:10:55.850Z,0.51
2023-04-04T11:11:55.804Z,0.51
2023-04-04T11:13:09.252Z,0.51
2023-04-04T11:13:56.727Z,0.51
2023-04-04T11:14:55.706Z,0.51
2023-04-04T11:15:55.671Z,0.51
2023-04-04T11:16:55.673Z,0.51
2023-04-04T11:17:55.647Z,0.51
2023-04-04T11:18:55.530Z,0.51
2023-04-04T11:19:55.483Z,0.52
2023-04-04T11:20:55.446Z,0.51
2023-04-04T11:21:55.406Z,0.51
2023-04-04T11:22:55.420Z,0.51
2023-04-04T11:23:55.443Z,0.51
2023-04-04T11:24:56.773Z,0.51
2023-04-04T11:25:55.483Z,0.51
2023-04-04T11:26:55.519Z,0.51
2023-04-04T11:27:55.544Z,0.52
2023-04-04T11:28:55.537Z,0.52
2023-04-04T11:29:55.578Z,0.52
2023-04-04T11:30:55.573Z,0.52
2023-04-04T11:31:55.606Z,0.52
2023-04-04T11:33:06.033Z,0.50
2023-04-04T11:33:56.562Z,0.50
2023-04-04T11:34:55.500Z,0.50
2023-04-04T11:35:55.462Z,0.51
2023-04-04T11:36:55.422Z,0.49
2023-04-04T11:37:55.360Z,0.52
2023-04-04T11:38:55.341Z,0.50
2023-04-04T11:39:55.260Z,0.50
2023-04-04T11:40:55.229Z,0.50
2023-04-04T11:41:55.172Z,0.52
2023-04-04T11:42:55.120Z,0.54
2023-04-04T11:43:55.079Z,0.51
2023-04-04T11:44:55.037Z,0.51
2023-04-04T11:45:55.070Z,0.56
2023-04-04T11:46:54.964Z,0.56
2023-04-04T11:47:55.001Z,0.52
2023-04-04T11:48:54.999Z,0.55
2023-04-04T11:49:54.934Z,0.51
2023-04-04T11:50:54.922Z,0.51
2023-04-04T11:51:54.915Z,0.53
2023-04-04T11:52:54.897Z,0.53
2023-04-04T11:53:54.880Z,0.54
2023-04-04T11:54:54.859Z,0.50
2023-04-04T11:55:54.841Z,0.51
2023-04-04T11:56:54.810Z,0.50
2023-04-04T11:57:54.788Z,0.53
2023-04-04T11:59:08.609Z,0.51
2023-04-04T11:59:55.811Z,0.51
2023-04-04T12:00:54.666Z,0.52
2023-04-04T12:01:54.629Z,0.52
2023-04-04T12:02:54.624Z,0.52
2023-04-04T12:03:54.526Z,0.52
2023-04-04T12:04:54.510Z,0.51
2023-04-04T12:05:54.455Z,0.53
2023-04-04T12:06:54.416Z,0.52
2023-04-04T12:07:54.326Z,0.52
2023-04-04T12:08:54.261Z,0.51
2023-04-04T12:09:56.195Z,0.52
2023-04-04T12:10:54.162Z,0.52
2023-04-04T12:11:54.122Z,0.52
2023-04-04T12:12:54.076Z,0.52
2023-04-04T12:13:54.018Z,0.52
2023-04-04T12:14:58.025Z,0.52
2023-04-04T12:15:56.168Z,0.52
2023-04-04T12:16:53.851Z,0.52
2023-04-04T12:17:53.832Z,0.52
2023-04-04T12:18:53.770Z,0.52
2023-04-04T12:19:53.738Z,0.51
2023-04-04T12:20:53.696Z,0.52
2023-04-04T12:21:53.652Z,0.52
2023-04-04T12:22:53.628Z,0.51
2023-04-04T12:23:53.586Z,0.52
2023-04-04T12:24:53.524Z,0.52
2023-04-04T12:25:53.494Z,0.52
2023-04-04T12:26:53.456Z,0.52
2023-04-04T12:27:53.443Z,0.50
2023-04-04T12:28:53.464Z,0.51
2023-04-04T12:29:53.404Z,0.51
2023-04-04T12:30:53.385Z,0.52
2023-04-04T12:31:53.492Z,0.51
2023-04-04T12:32:53.389Z,0.52
2023-04-04T12:33:53.357Z,0.51
2023-04-04T12:34:53.380Z,0.53
2023-04-04T12:35:53.507Z,0.52
2023-04-04T12:36:53.363Z,0.52
2023-04-04T12:37:53.389Z,0.51
2023-04-04T12:38:53.386Z,0.53
2023-04-04T12:39:54.073Z,0.52
2023-04-04T12:40:53.418Z,0.52
2023-04-04T12:41:53.428Z,0.51
2023-04-04T12:42:53.438Z,0.52
2023-04-04T12:43:53.472Z,0.52
2023-04-04T12:44:53.462Z,0.51
2023-04-04T12:45:53.459Z,0.52
2023-04-04T12:46:53.494Z,0.52
2023-04-04T12:47:53.473Z,0.51
2023-04-04T12:48:53.466Z,0.52
2023-04-04T12:49:53.467Z,0.51
2023-04-04T12:50:53.470Z,0.51
2023-04-04T12:51:53.488Z,0.52
2023-04-04T12:52:55.520Z,0.52
2023-04-04T12:53:54.406Z,0.52
2023-04-04T12:55:06.676Z,0.52
2023-04-04T12:55:54.314Z,0.52
2023-04-04T12:56:53.226Z,0.52
2023-04-04T12:57:53.170Z,0.52
2023-04-04T12:58:53.175Z,0.52
2023-04-04T12:59:53.975Z,0.53
2023-04-04T13:00:53.062Z,0.53
2023-04-04T13:01:52.920Z,0.51
2023-04-04T13:02:52.897Z,0.53
2023-04-04T13:03:52.817Z,0.53
2023-04-04T13:04:52.756Z,0.51
2023-04-04T13:05:52.761Z,0.51
2023-04-04T13:06:52.694Z,0.51
2023-04-04T13:07:52.656Z,0.53
2023-04-04T13:08:52.687Z,0.52
2023-04-04T13:09:52.622Z,0.52
2023-04-04T13:10:52.999Z,0.52
2023-04-04T13:11:52.581Z,0.51
2023-04-04T13:12:52.567Z,0.52
2023-04-04T13:13:52.705Z,0.52
2023-04-04T13:14:52.548Z,0.53
2023-04-04T13:15:52.589Z,0.52
2023-04-04T13:16:52.531Z,0.52
2023-04-04T13:17:52.443Z,0.52
2023-04-04T13:18:52.387Z,0.52